TimeCDT,TemperatureF,Dew PointF,Humidity,Sea Level PressureIn,VisibilityMPH,Wind Direction,Wind SpeedMPH,Gust SpeedMPH,PrecipitationIn,Events,Conditions,WindDirDegrees,DateUTC
12:15 AM,64.4,62.6,94,29.73,10.0,SSW,13.8,18.4,N/A,,Clear,210,2012-10-14 05:15:00
12:35 AM,64.4,62.6,94,29.73,10.0,SSW,12.7,18.4,N/A,,Clear,210,2012-10-14 05:35:00
12:55 AM,64.4,62.6,94,29.74,10.0,SSW,13.8,-,N/A,,Clear,210,2012-10-14 05:55:00
1:15 AM,64.4,62.6,94,29.74,10.0,South,10.4,-,N/A,,Clear,190,2012-10-14 06:15:00
1:35 AM,62.6,62.6,100,29.74,10.0,South,11.5,-,N/A,,Clear,180,2012-10-14 06:35:00
1:55 AM,62.6,62.6,100,29.75,10.0,SSW,12.7,-,N/A,,Clear,200,2012-10-14 06:55:00
2:15 AM,62.6,60.8,94,29.75,10.0,SSW,11.5,-,N/A,,Clear,210,2012-10-14 07:15:00
2:35 AM,62.6,60.8,94,29.75,10.0,SSW,10.4,-,N/A,,Clear,200,2012-10-14 07:35:00
2:55 AM,62.6,60.8,94,29.75,10.0,SSW,10.4,-,N/A,,Clear,200,2012-10-14 07:55:00
3:15 AM,60.8,60.8,100,29.76,10.0,SSW,10.4,-,N/A,,Clear,210,2012-10-14 08:15:00
3:35 AM,60.8,60.8,100,29.77,10.0,SW,11.5,-,N/A,,Clear,230,2012-10-14 08:35:00
3:55 AM,60.8,59.0,94,29.77,10.0,WSW,9.2,-,N/A,,Clear,240,2012-10-14 08:55:00
4:35 AM,59.0,55.4,88,29.77,10.0,SW,6.9,-,N/A,,Clear,220,2012-10-14 09:35:00
4:55 AM,59.0,55.4,88,29.79,10.0,WSW,8.1,-,N/A,,Clear,240,2012-10-14 09:55:00
5:15 AM,59.0,53.6,82,29.79,10.0,WSW,9.2,-,N/A,,Clear,240,2012-10-14 10:15:00
5:35 AM,57.2,51.8,82,29.79,10.0,SW,8.1,-,N/A,,Clear,220,2012-10-14 10:35:00
5:55 AM,55.4,51.8,88,29.80,10.0,SSW,9.2,-,N/A,,Clear,210,2012-10-14 10:55:00
6:15 AM,55.4,51.8,88,29.81,10.0,SW,9.2,-,N/A,,Clear,220,2012-10-14 11:15:00
6:35 AM,55.4,51.8,88,29.82,10.0,SW,5.8,-,N/A,,Clear,220,2012-10-14 11:35:00
6:55 AM,55.4,50.0,82,29.84,10.0,West,8.1,-,N/A,,Clear,260,2012-10-14 11:55:00
7:15 AM,55.4,50.0,82,29.86,10.0,WSW,8.1,-,N/A,,Clear,250,2012-10-14 12:15:00
7:35 AM,55.4,50.0,82,29.87,10.0,West,9.2,-,N/A,,Clear,260,2012-10-14 12:35:00
7:55 AM,55.4,50.0,82,29.88,10.0,West,8.1,-,N/A,,Clear,260,2012-10-14 12:55:00
8:15 AM,57.2,50.0,77,29.90,10.0,West,5.8,-,N/A,,Clear,270,2012-10-14 13:15:00
9:15 AM,60.8,51.8,72,29.93,10.0,West,8.1,-,N/A,,Clear,280,2012-10-14 14:15:00
9:35 AM,60.8,51.8,72,29.96,10.0,WNW,8.1,-,N/A,,Clear,290,2012-10-14 14:35:00
9:55 AM,62.6,51.8,68,29.97,10.0,WNW,15.0,-,N/A,,Clear,290,2012-10-14 14:55:00
10:15 AM,62.6,53.6,72,29.98,10.0,West,9.2,-,N/A,,Clear,280,2012-10-14 15:15:00
10:35 AM,64.4,53.6,68,29.99,10.0,WNW,13.8,17.3,N/A,,Clear,300,2012-10-14 15:35:00
10:55 AM,66.2,53.6,64,30.01,10.0,WNW,15.0,21.9,N/A,,Clear,300,2012-10-14 15:55:00
11:15 AM,66.2,53.6,64,30.02,10.0,NW,10.4,17.3,N/A,,Clear,320,2012-10-14 16:15:00
11:35 AM,68.0,53.6,60,30.03,10.0,NW,9.2,19.6,N/A,,Clear,320,2012-10-14 16:35:00
11:55 AM,68.0,53.6,60,30.03,10.0,WNW,12.7,18.4,N/A,,Clear,290,2012-10-14 16:55:00
12:15 PM,69.8,51.8,53,30.04,10.0,WNW,9.2,16.1,N/A,,Clear,300,2012-10-14 17:15:00
12:35 PM,69.8,51.8,53,30.04,10.0,NW,11.5,18.4,N/A,,Clear,320,2012-10-14 17:35:00
12:55 PM,71.6,51.8,50,30.05,10.0,WNW,11.5,17.3,N/A,,Clear,300,2012-10-14 17:55:00
1:15 PM,71.6,50.0,46,30.04,10.0,NW,9.2,18.4,N/A,,Clear,310,2012-10-14 18:15:00
1:35 PM,73.4,50.0,44,30.04,10.0,WNW,13.8,19.6,N/A,,Clear,300,2012-10-14 18:35:00
1:55 PM,73.4,48.2,41,30.04,10.0,NW,11.5,17.3,N/A,,Clear,310,2012-10-14 18:55:00
2:15 PM,73.4,44.6,36,30.03,10.0,NNW,13.8,20.7,N/A,,Clear,330,2012-10-14 19:15:00
2:35 PM,73.4,44.6,36,30.04,10.0,North,10.4,17.3,N/A,,Clear,350,2012-10-14 19:35:00
2:55 PM,75.2,44.6,34,30.03,10.0,NW,10.4,17.3,N/A,,Clear,320,2012-10-14 19:55:00
3:15 PM,75.2,44.6,34,30.04,10.0,WNW,10.4,-,N/A,,Clear,290,2012-10-14 20:15:00
3:35 PM,77.0,42.8,29,30.04,7.0,NNW,11.5,17.3,N/A,,Clear,330,2012-10-14 20:35:00
3:55 PM,75.2,42.8,31,30.04,10.0,NNW,9.2,-,N/A,,Clear,330,2012-10-14 20:55:00
4:15 PM,75.2,42.8,31,30.03,10.0,North,6.9,-,N/A,,Clear,350,2012-10-14 21:15:00
4:35 PM,75.2,42.8,31,30.03,10.0,NW,10.4,-,N/A,,Clear,310,2012-10-14 21:35:00
4:55 PM,73.4,42.8,33,30.04,10.0,NNW,11.5,16.1,N/A,,Clear,330,2012-10-14 21:55:00
5:15 PM,73.4,42.8,33,30.04,10.0,NNW,6.9,-,N/A,,Clear,340,2012-10-14 22:15:00
5:35 PM,73.4,44.6,36,30.05,10.0,North,4.6,-,N/A,,Clear,350,2012-10-14 22:35:00
5:55 PM,73.4,42.8,33,30.05,10.0,North,6.9,-,N/A,,Clear,350,2012-10-14 22:55:00
6:15 PM,71.6,42.8,35,30.05,10.0,North,5.8,-,N/A,,Clear,350,2012-10-14 23:15:00
6:35 PM,69.8,42.8,38,30.06,10.0,North,4.6,-,N/A,,Clear,350,2012-10-14 23:35:00
6:55 PM,68.0,42.8,40,30.06,10.0,NNW,4.6,-,N/A,,Clear,340,2012-10-14 23:55:00
7:15 PM,68.0,42.8,40,30.06,10.0,NNW,4.6,-,N/A,,Clear,340,2012-10-15 00:15:00
7:35 PM,66.2,42.8,43,30.06,10.0,Calm,Calm,-,N/A,,Clear,0,2012-10-15 00:35:00
7:55 PM,62.6,44.6,52,30.06,10.0,Calm,Calm,-,N/A,,Clear,0,2012-10-15 00:55:00
8:15 PM,60.8,44.6,55,30.07,10.0,West,4.6,-,N/A,,Clear,280,2012-10-15 01:15:00
8:35 PM,60.8,44.6,55,30.08,10.0,WNW,3.5,-,N/A,,Clear,290,2012-10-15 01:35:00
8:55 PM,57.2,44.6,63,30.08,10.0,Calm,Calm,-,N/A,,Clear,0,2012-10-15 01:55:00
9:15 PM,59.0,46.4,63,30.08,10.0,Calm,Calm,-,N/A,,Clear,0,2012-10-15 02:15:00
9:35 PM,55.4,46.4,72,30.09,10.0,Calm,Calm,-,N/A,,Clear,0,2012-10-15 02:35:00
9:55 PM,53.6,46.4,77,30.09,10.0,Calm,Calm,-,N/A,,Clear,0,2012-10-15 02:55:00
10:15 PM,53.6,44.6,72,30.10,10.0,Calm,Calm,-,N/A,,Clear,0,2012-10-15 03:15:00
10:35 PM,51.8,46.4,82,30.10,10.0,Calm,Calm,-,N/A,,Clear,0,2012-10-15 03:35:00
10:55 PM,51.8,46.4,82,30.10,10.0,Calm,Calm,-,N/A,,Clear,0,2012-10-15 03:55:00
11:15 PM,51.8,46.4,82,30.10,10.0,Calm,Calm,-,N/A,,Clear,0,2012-10-15 04:15:00
11:35 PM,50.0,46.4,87,30.10,10.0,Calm,Calm,-,N/A,,Clear,0,2012-10-15 04:35:00
11:55 PM,51.8,44.6,76,30.10,10.0,Calm,Calm,-,N/A,,Clear,0,2012-10-15 04:55:00